Alvarado, Minnesota
Current Conditions -  °F | °C
As of 6:53 AM on Thursday 30 Oct 2014 (Local Time) from KGFK Reporting Station
Broken Clouds Broken Clouds  
Wind Chill: 21°   Ceiling: 3600
Heat Index: 30°   Visibility: 10mi
Dew Point: 28°   Wind: 10mph
Humidity: 92%   Direction: 330°NNW
Pressure: 30.14"   Gusts: NA
Location:  48.19°N, 97°W
Report Text: KGFK 301153Z 33009KT 10SM BKN036 BKN050 M01/M02 A3014 RMK AO2 SLP217 T10111022 10033 21011 53038
Loading
Personal Weather Stations






























Interactive Weather Map New forecast layout! Learn more

10-Day Weather Forecast

Advertisements
Track Severe Weather on mobile